createdAt,value
2023-01-01T00:00:49.336Z,16.65
2023-01-01T00:03:17.213Z,16.66
2023-01-01T00:05:45.026Z,16.66
2023-01-01T00:08:12.789Z,16.68
2023-01-01T00:10:40.545Z,16.69
2023-01-01T00:13:08.381Z,16.69
2023-01-01T00:15:36.565Z,16.68
2023-01-01T00:18:04.473Z,16.68
2023-01-01T00:20:35.414Z,16.67
2023-01-01T00:23:03.757Z,16.67
2023-01-01T00:25:32.617Z,16.66
2023-01-01T00:28:00.943Z,16.66
2023-01-01T00:30:29.062Z,16.63
2023-01-01T00:32:56.940Z,16.61
2023-01-01T00:35:25.694Z,16.58
2023-01-01T00:37:54.646Z,16.57
2023-01-01T00:40:22.971Z,16.53
2023-01-01T00:42:50.779Z,16.51
2023-01-01T00:45:21.747Z,16.47
2023-01-01T00:47:54.224Z,16.44
2023-01-01T00:50:23.143Z,16.42
2023-01-01T00:52:50.974Z,16.34
2023-01-01T00:55:18.785Z,16.36
2023-01-01T00:57:46.554Z,16.36
2023-01-01T01:00:15.422Z,16.34
2023-01-01T01:02:43.243Z,16.34
2023-01-01T01:05:11.207Z,16.36
2023-01-01T01:07:39.936Z,16.31
2023-01-01T01:10:09.638Z,16.30
2023-01-01T01:12:37.682Z,16.28
2023-01-01T01:15:07.210Z,16.24
2023-01-01T01:17:35.468Z,16.23
2023-01-01T01:20:04.657Z,16.21
2023-01-01T01:22:34.622Z,16.17
2023-01-01T01:25:02.538Z,16.16
2023-01-01T01:27:30.549Z,16.13
2023-01-01T01:29:58.459Z,16.11
2023-01-01T01:32:26.942Z,16.10
2023-01-01T01:34:54.872Z,16.10
2023-01-01T01:37:22.628Z,16.08
2023-01-01T01:39:53.817Z,16.09
2023-01-01T01:42:22.372Z,16.08
2023-01-01T01:45:01.425Z,16.06
2023-01-01T01:47:46.492Z,16.04
2023-01-01T01:50:38.890Z,16.02
2023-01-01T01:53:27.393Z,16.01
2023-01-01T01:56:00.810Z,15.99
2023-01-01T01:58:31.601Z,15.99
2023-01-01T02:01:00.653Z,15.99
2023-01-01T02:03:32.596Z,15.97
2023-01-01T02:06:01.608Z,15.98
2023-01-01T02:08:30.208Z,15.97
2023-01-01T02:10:58.008Z,15.96
2023-01-01T02:13:25.761Z,15.95
2023-01-01T02:16:22.453Z,15.95
2023-01-01T02:19:20.900Z,15.98
2023-01-01T02:22:36.353Z,15.99
2023-01-01T02:25:14.106Z,16.02
2023-01-01T02:27:48.562Z,16.01
2023-01-01T02:30:16.894Z,16.00
2023-01-01T02:33:02.131Z,15.99
2023-01-01T02:35:58.624Z,15.97
2023-01-01T02:38:45.002Z,15.94
2023-01-01T02:41:27.403Z,15.94
2023-01-01T02:48:52.620Z,15.88
2023-01-01T02:51:23.081Z,15.87
2023-01-01T02:54:18.845Z,15.89
2023-01-01T02:57:05.044Z,15.83
2023-01-01T03:00:04.648Z,15.85
2023-01-01T03:03:08.590Z,15.86
2023-01-01T03:06:16.836Z,15.87
2023-01-01T03:09:17.996Z,15.86
2023-01-01T03:12:00.214Z,15.84
2023-01-01T03:14:40.532Z,15.85
2023-01-01T03:17:36.275Z,15.84
2023-01-01T03:20:13.944Z,15.85
2023-01-01T03:25:23.786Z,15.83
2023-01-01T03:27:59.354Z,15.83
2023-01-01T03:30:29.923Z,15.82
2023-01-01T03:33:08.064Z,15.82
2023-01-01T03:36:30.188Z,15.82
2023-01-01T03:39:21.247Z,15.86
2023-01-01T03:42:17.928Z,15.88
2023-01-01T03:45:01.803Z,15.85
2023-01-01T03:47:30.588Z,15.84
2023-01-01T03:49:59.740Z,15.80
2023-01-01T03:53:08.096Z,15.82
2023-01-01T03:55:45.668Z,15.82
2023-01-01T03:58:35.398Z,15.82
2023-01-01T04:01:27.185Z,15.83
2023-01-01T04:03:55.957Z,15.86
2023-01-01T04:06:23.897Z,15.85
2023-01-01T04:08:57.151Z,15.86
2023-01-01T04:11:49.311Z,15.89
2023-01-01T04:14:35.293Z,15.87
2023-01-01T04:17:05.033Z,15.81
2023-01-01T04:19:33.106Z,15.78
2023-01-01T04:22:02.310Z,15.71
2023-01-01T04:24:30.541Z,15.69
2023-01-01T04:26:58.401Z,15.67
2023-01-01T04:29:26.501Z,15.66
2023-01-01T04:31:54.380Z,15.69
2023-01-01T04:34:22.093Z,15.68
2023-01-01T04:36:49.855Z,15.66
2023-01-01T04:39:17.761Z,15.65
2023-01-01T04:41:47.513Z,15.67
2023-01-01T04:44:15.256Z,15.67
2023-01-01T04:46:43.067Z,15.67
2023-01-01T04:49:10.825Z,15.66
2023-01-01T04:51:38.645Z,15.66
2023-01-01T04:54:06.522Z,15.66
2023-01-01T04:56:34.625Z,15.66
2023-01-01T04:59:02.358Z,15.68
2023-01-01T05:01:31.307Z,15.69
2023-01-01T05:04:00.300Z,15.68
2023-01-01T05:06:29.184Z,15.69
2023-01-01T05:08:57.693Z,15.69
2023-01-01T05:11:28.872Z,15.71
2023-01-01T05:14:00.151Z,15.72
2023-01-01T05:16:31.373Z,15.75
2023-01-01T05:18:59.614Z,15.73
2023-01-01T05:21:33.609Z,15.76
2023-01-01T05:24:05.117Z,15.78
2023-01-01T05:26:36.437Z,15.79
2023-01-01T05:29:08.932Z,15.78
2023-01-01T05:31:41.392Z,15.79
2023-01-01T05:36:39.090Z,15.80
2023-01-01T05:39:12.711Z,15.80
2023-01-01T05:41:41.788Z,15.80
2023-01-01T05:44:10.476Z,15.83
2023-01-01T05:46:38.454Z,15.83
2023-01-01T05:49:06.192Z,15.83
2023-01-01T05:54:00.721Z,15.82
2023-01-01T05:56:29.591Z,15.80
2023-01-01T05:58:57.502Z,15.82
2023-01-01T06:01:31.279Z,15.84
2023-01-01T06:03:59.902Z,15.90
2023-01-01T06:06:33.216Z,15.87
2023-01-01T06:09:04.327Z,15.84
2023-01-01T06:11:33.070Z,15.82
2023-01-01T06:14:01.503Z,15.80
2023-01-01T06:16:31.319Z,15.80
2023-01-01T06:19:00.037Z,15.78
2023-01-01T06:21:29.650Z,15.82
2023-01-01T06:23:59.703Z,15.81
2023-01-01T06:26:33.402Z,15.82
2023-01-01T06:29:04.357Z,15.82
2023-01-01T06:31:37.050Z,15.83
2023-01-01T06:34:08.538Z,15.83
2023-01-01T06:36:36.382Z,15.84
2023-01-01T06:39:04.533Z,15.86
2023-01-01T06:41:33.071Z,15.87
2023-01-01T06:44:02.200Z,15.84
2023-01-01T06:46:36.162Z,15.87
2023-01-01T06:49:09.898Z,15.86
2023-01-01T06:51:43.627Z,15.86
2023-01-01T06:54:11.398Z,15.94
2023-01-01T06:56:40.106Z,15.92
2023-01-01T06:59:07.864Z,15.88
2023-01-01T07:01:39.893Z,15.85
2023-01-01T07:04:16.647Z,15.87
2023-01-01T07:06:44.477Z,15.86
2023-01-01T07:09:12.370Z,15.84
2023-01-01T07:11:40.723Z,15.83
2023-01-01T07:14:08.432Z,15.83
2023-01-01T07:16:36.301Z,15.84
2023-01-01T07:19:05.212Z,15.85
2023-01-01T07:21:38.822Z,15.84
2023-01-01T07:24:09.979Z,15.82
2023-01-01T07:26:37.722Z,15.79
2023-01-01T07:29:07.887Z,15.80
2023-01-01T07:31:44.279Z,15.79
2023-01-01T07:34:19.213Z,15.82
2023-01-01T07:36:47.471Z,15.81
2023-01-01T07:39:15.205Z,15.81
2023-01-01T07:41:43.495Z,15.83
2023-01-01T07:44:14.838Z,15.83
2023-01-01T07:46:42.671Z,15.85
2023-01-01T07:49:10.447Z,15.85
2023-01-01T07:51:38.240Z,15.85
2023-01-01T07:54:07.348Z,15.86
2023-01-01T07:56:36.147Z,15.88
2023-01-01T07:59:05.122Z,15.91
2023-01-01T08:01:37.429Z,15.91
2023-01-01T08:04:06.034Z,15.93
2023-01-01T08:06:33.853Z,15.96
2023-01-01T08:09:01.605Z,15.94
2023-01-01T08:11:29.706Z,15.93
2023-01-01T08:13:57.447Z,15.92
2023-01-01T08:16:25.214Z,15.96
2023-01-01T08:18:52.957Z,15.95
2023-01-01T08:21:20.677Z,15.92
2023-01-01T08:23:48.385Z,15.91
2023-01-01T08:26:17.896Z,15.93
2023-01-01T08:28:45.658Z,15.95
2023-01-01T08:31:13.481Z,15.97
2023-01-01T08:33:41.178Z,15.95
2023-01-01T08:36:13.273Z,15.95
2023-01-01T08:38:41.256Z,15.94
2023-01-01T08:41:09.932Z,15.96
2023-01-01T08:43:37.670Z,15.97
2023-01-01T08:46:05.534Z,15.96
2023-01-01T08:48:33.306Z,15.97
2023-01-01T08:51:02.168Z,15.98
2023-01-01T08:53:32.001Z,15.97
2023-01-01T08:56:03.985Z,15.99
2023-01-01T08:58:33.201Z,16.00
2023-01-01T09:01:01.075Z,16.02
2023-01-01T09:03:28.947Z,16.06
2023-01-01T09:05:57.241Z,16.07
2023-01-01T09:08:25.668Z,16.09
2023-01-01T09:10:57.731Z,16.14
2023-01-01T09:13:25.728Z,16.17
2023-01-01T09:15:53.662Z,16.16
2023-01-01T09:18:21.706Z,16.21
2023-01-01T09:20:50.113Z,16.25
2023-01-01T09:23:17.812Z,16.28
2023-01-01T09:25:45.576Z,16.29
2023-01-01T09:28:14.425Z,16.33
2023-01-01T09:30:42.213Z,16.39
2023-01-01T09:33:09.896Z,16.42
2023-01-01T09:35:38.841Z,16.45
2023-01-01T09:38:06.655Z,16.49
2023-01-01T09:41:21.699Z,16.53
2023-01-01T09:44:15.822Z,16.61
2023-01-01T09:46:43.947Z,16.63
2023-01-01T09:49:27.188Z,16.67
2023-01-01T09:52:01.152Z,16.72
2023-01-01T09:54:34.165Z,16.77
2023-01-01T09:57:06.743Z,16.82
2023-01-01T09:59:34.493Z,16.85
2023-01-01T10:02:36.443Z,16.89
2023-01-01T10:05:15.852Z,16.94
2023-01-01T10:07:58.488Z,16.96
2023-01-01T10:10:38.641Z,17.01
2023-01-01T10:13:40.820Z,17.02
2023-01-01T10:16:47.234Z,17.06
2023-01-01T10:20:32.069Z,17.08
2023-01-01T10:23:29.794Z,17.16
2023-01-01T10:26:00.741Z,17.17
2023-01-01T10:29:02.660Z,17.20
2023-01-01T10:31:45.976Z,17.27
2023-01-01T10:34:24.358Z,17.29
2023-01-01T10:36:58.849Z,17.32
2023-01-01T10:39:28.008Z,17.34
2023-01-01T10:41:58.276Z,17.36
2023-01-01T10:44:34.769Z,17.40
2023-01-01T10:47:25.600Z,17.44
2023-01-01T10:50:00.450Z,17.50
2023-01-01T10:52:45.303Z,17.54
2023-01-01T10:55:27.187Z,17.59
2023-01-01T10:57:54.949Z,17.63
2023-01-01T11:00:28.902Z,17.67
2023-01-01T11:03:19.348Z,17.73
2023-01-01T11:06:16.112Z,17.76
2023-01-01T11:08:53.838Z,17.77
2023-01-01T11:11:46.299Z,17.78
2023-01-01T11:14:42.852Z,17.82
2023-01-01T11:17:10.987Z,17.86
2023-01-01T11:19:45.691Z,17.87
2023-01-01T11:22:50.395Z,17.90
2023-01-01T11:25:31.805Z,17.91
2023-01-01T11:28:21.906Z,17.92
2023-01-01T11:31:07.658Z,17.95
2023-01-01T11:33:59.188Z,17.96
2023-01-01T11:36:35.454Z,17.99
2023-01-01T11:39:26.587Z,17.99
2023-01-01T11:41:58.217Z,18.00
2023-01-01T11:44:46.044Z,18.01
2023-01-01T11:47:26.905Z,18.05
2023-01-01T11:50:09.072Z,18.07
2023-01-01T11:52:43.369Z,18.09
2023-01-01T11:55:24.934Z,18.13
2023-01-01T11:58:04.428Z,18.16
2023-01-01T12:00:36.716Z,18.19
2023-01-01T12:03:35.554Z,18.22
2023-01-01T12:06:29.660Z,18.28
2023-01-01T12:09:11.992Z,18.34
2023-01-01T12:11:57.472Z,18.36
2023-01-01T12:15:25.712Z,18.36
2023-01-01T12:18:18.998Z,18.41
2023-01-01T12:21:29.323Z,18.45
2023-01-01T12:23:57.131Z,18.50
2023-01-01T12:26:53.154Z,18.52
2023-01-01T12:29:53.314Z,18.58
2023-01-01T12:33:15.142Z,18.62
2023-01-01T12:36:27.010Z,18.68
2023-01-01T12:39:34.777Z,18.73
2023-01-01T12:42:18.430Z,18.78
2023-01-01T12:45:12.367Z,18.82
2023-01-01T12:48:13.667Z,18.87
2023-01-01T12:50:51.440Z,18.93
2023-01-01T12:53:37.012Z,18.99
2023-01-01T12:56:22.557Z,19.02
2023-01-01T12:58:58.893Z,19.06
2023-01-01T13:01:33.921Z,19.10
2023-01-01T13:04:20.181Z,19.14
2023-01-01T13:06:57.454Z,19.16
2023-01-01T13:09:29.312Z,19.20
2023-01-01T13:12:14.541Z,19.24
2023-01-01T13:14:45.725Z,19.29
2023-01-01T13:17:30.198Z,19.28
2023-01-01T13:20:24.090Z,19.28
2023-01-01T13:22:51.946Z,19.32
2023-01-01T13:25:23.758Z,19.35
2023-01-01T13:27:57.378Z,19.37
2023-01-01T13:30:41.635Z,19.51
2023-01-01T13:33:31.254Z,19.49
2023-01-01T13:36:08.494Z,19.46
2023-01-01T13:38:59.503Z,19.45
2023-01-01T13:41:30.245Z,19.46
2023-01-01T13:44:00.872Z,19.45
2023-01-01T13:46:44.711Z,19.43
2023-01-01T13:49:53.489Z,19.43
2023-01-01T13:52:58.098Z,19.43
2023-01-01T13:55:51.104Z,19.41
2023-01-01T13:58:56.233Z,19.39
2023-01-01T14:01:29.795Z,19.39
2023-01-01T14:03:58.765Z,19.50
2023-01-01T14:06:41.876Z,19.45
2023-01-01T14:09:14.837Z,19.43
2023-01-01T14:11:42.994Z,19.44
2023-01-01T14:14:28.622Z,19.42
2023-01-01T14:17:00.440Z,19.38
2023-01-01T14:19:29.338Z,19.34
2023-01-01T14:21:57.863Z,19.33
2023-01-01T14:24:26.828Z,19.31
2023-01-01T14:26:55.571Z,19.32
2023-01-01T14:29:29.607Z,19.34
2023-01-01T14:32:11.908Z,19.34
2023-01-01T14:34:39.600Z,19.39
2023-01-01T14:37:23.935Z,19.39
2023-01-01T14:40:28.113Z,19.44
2023-01-01T14:43:07.896Z,19.48
2023-01-01T14:45:38.913Z,19.45
2023-01-01T14:48:07.182Z,19.43
2023-01-01T14:50:36.000Z,19.44
2023-01-01T14:53:13.233Z,19.40
2023-01-01T14:55:45.032Z,19.37
2023-01-01T14:58:27.750Z,19.34
2023-01-01T15:01:15.874Z,19.30
2023-01-01T15:03:56.388Z,19.27
2023-01-01T15:06:25.235Z,19.23
2023-01-01T15:08:53.864Z,19.19
2023-01-01T15:11:28.358Z,19.15
2023-01-01T15:14:01.299Z,19.13
2023-01-01T15:16:34.739Z,19.06
2023-01-01T15:19:18.278Z,19.00
2023-01-01T15:21:46.879Z,18.94
2023-01-01T15:24:29.293Z,18.86
2023-01-01T15:27:03.683Z,18.80
2023-01-01T15:29:50.581Z,18.75
2023-01-01T15:32:33.003Z,18.69
2023-01-01T15:35:32.602Z,18.57
2023-01-01T15:38:10.360Z,18.47
2023-01-01T15:40:38.411Z,18.36
2023-01-01T15:43:18.182Z,18.27
2023-01-01T15:46:00.632Z,18.16
2023-01-01T15:48:39.549Z,18.02
2023-01-01T15:51:17.711Z,17.93
2023-01-01T15:53:54.669Z,17.85
2023-01-01T15:56:30.129Z,17.72
2023-01-01T15:59:14.831Z,17.65
2023-01-01T16:01:43.829Z,17.58
2023-01-01T16:04:27.656Z,17.51
2023-01-01T16:06:58.784Z,17.46
2023-01-01T16:09:26.653Z,17.39
2023-01-01T16:11:57.548Z,17.36
2023-01-01T16:14:25.679Z,17.33
2023-01-01T16:17:00.997Z,17.31
2023-01-01T16:19:31.937Z,17.29
2023-01-01T16:21:59.795Z,17.28
2023-01-01T16:24:28.723Z,17.25
2023-01-01T16:26:56.500Z,17.24
2023-01-01T16:29:24.211Z,17.23
2023-01-01T16:31:52.441Z,17.23
2023-01-01T16:34:20.214Z,17.25
2023-01-01T16:36:49.664Z,17.27
2023-01-01T16:39:17.400Z,17.25
2023-01-01T16:41:45.464Z,17.25
2023-01-01T16:44:16.339Z,17.26
2023-01-01T16:46:44.394Z,17.27
2023-01-01T16:49:12.231Z,17.28
2023-01-01T16:51:43.738Z,17.26
2023-01-01T16:54:12.063Z,17.26
2023-01-01T16:56:39.836Z,17.23
2023-01-01T16:59:07.567Z,17.22
2023-01-01T17:01:35.548Z,17.18
2023-01-01T17:04:03.593Z,17.11
2023-01-01T17:06:31.478Z,17.02
2023-01-01T17:09:00.701Z,16.91
2023-01-01T17:11:28.583Z,16.82
2023-01-01T17:13:59.633Z,16.70
2023-01-01T17:16:38.331Z,16.60
2023-01-01T17:19:16.560Z,16.51
2023-01-01T17:21:47.968Z,16.44
2023-01-01T17:24:18.319Z,16.36
2023-01-01T17:26:50.725Z,16.25
2023-01-01T17:29:19.382Z,16.22
2023-01-01T17:31:47.381Z,16.14
2023-01-01T17:34:15.419Z,16.05
2023-01-01T17:36:45.031Z,15.99
2023-01-01T17:39:15.405Z,15.97
2023-01-01T17:41:44.589Z,15.95
2023-01-01T17:44:12.403Z,15.97
2023-01-01T17:46:40.763Z,15.96
2023-01-01T17:49:09.975Z,15.96
2023-01-01T17:51:39.465Z,15.98
2023-01-01T17:54:10.331Z,15.97
2023-01-01T17:56:38.153Z,15.94
2023-01-01T17:59:06.072Z,15.93
2023-01-01T18:01:35.779Z,15.94
2023-01-01T18:04:07.372Z,15.97
2023-01-01T18:06:42.109Z,15.98
2023-01-01T18:09:13.719Z,16.00
2023-01-01T18:11:42.175Z,16.03
2023-01-01T18:14:12.168Z,16.07
2023-01-01T18:16:44.077Z,16.11
2023-01-01T18:19:12.163Z,16.16
2023-01-01T18:21:40.062Z,16.16
2023-01-01T18:24:13.992Z,16.20
2023-01-01T18:26:42.681Z,16.21
2023-01-01T18:29:10.514Z,16.25
2023-01-01T18:31:38.370Z,16.27
2023-01-01T18:34:06.997Z,16.31
2023-01-01T18:36:35.470Z,16.32
2023-01-01T18:39:26.246Z,16.38
2023-01-01T18:42:22.555Z,16.38
2023-01-01T18:44:51.823Z,16.39
2023-01-01T18:47:20.697Z,16.39
2023-01-01T18:49:51.991Z,16.39
2023-01-01T18:52:29.081Z,16.42
2023-01-01T18:55:23.021Z,16.43
2023-01-01T18:58:06.439Z,16.45
2023-01-01T19:00:36.469Z,16.47
2023-01-01T19:03:13.976Z,16.44
2023-01-01T19:05:42.004Z,16.44
2023-01-01T19:08:09.605Z,16.44
2023-01-01T19:10:47.370Z,16.44
2023-01-01T19:13:28.033Z,16.46
2023-01-01T19:16:08.616Z,16.44
2023-01-01T19:18:39.749Z,16.42
2023-01-01T19:21:21.949Z,16.42
2023-01-01T19:23:58.738Z,16.41
2023-01-01T19:26:28.797Z,16.41
2023-01-01T19:29:01.449Z,16.42
2023-01-01T19:31:29.232Z,16.40
2023-01-01T19:33:57.102Z,16.39
2023-01-01T19:36:25.169Z,16.40
2023-01-01T19:38:52.840Z,16.40
2023-01-01T19:41:20.591Z,16.42
2023-01-01T19:43:48.349Z,16.41
2023-01-01T19:46:16.181Z,16.40
2023-01-01T19:48:44.000Z,16.41
2023-01-01T19:51:11.748Z,16.42
2023-01-01T19:53:39.457Z,16.43
2023-01-01T19:56:07.787Z,16.42
2023-01-01T19:58:35.574Z,16.45
2023-01-01T20:01:03.531Z,16.51
2023-01-01T20:06:18.999Z,16.52
2023-01-01T20:08:46.718Z,16.52
2023-01-01T20:11:15.534Z,16.51
2023-01-01T20:13:43.715Z,16.52
2023-01-01T20:16:11.808Z,16.52
2023-01-01T20:18:39.779Z,16.48
2023-01-01T20:21:27.162Z,16.45
2023-01-01T20:23:56.023Z,16.49
2023-01-01T20:26:26.037Z,16.52
2023-01-01T20:29:12.741Z,16.54
2023-01-01T20:31:40.868Z,16.53
2023-01-01T20:34:08.696Z,16.55
2023-01-01T20:36:54.629Z,16.54
2023-01-01T20:39:22.757Z,16.56
2023-01-01T20:41:50.931Z,16.57
2023-01-01T20:44:18.905Z,16.57
2023-01-01T20:46:48.233Z,16.57
2023-01-01T20:49:17.703Z,16.59
2023-01-01T20:51:54.079Z,16.60
2023-01-01T20:54:22.739Z,16.63
2023-01-01T20:56:50.979Z,16.65
2023-01-01T20:59:34.781Z,16.65
2023-01-01T21:02:10.092Z,16.67
2023-01-01T21:04:39.671Z,16.69
2023-01-01T21:07:10.518Z,16.67
2023-01-01T21:09:39.747Z,16.69
2023-01-01T21:12:08.865Z,16.68
2023-01-01T21:14:36.932Z,16.69
2023-01-01T21:17:24.460Z,16.73
2023-01-01T21:19:56.469Z,16.78
2023-01-01T21:22:24.379Z,16.79
2023-01-01T21:24:55.357Z,16.79
2023-01-01T21:27:34.070Z,16.80
2023-01-01T21:30:01.988Z,16.82
2023-01-01T21:32:49.571Z,16.81
2023-01-01T21:35:35.429Z,16.82
2023-01-01T21:38:18.986Z,16.79
2023-01-01T21:40:59.596Z,16.76
2023-01-01T21:43:48.010Z,16.73
2023-01-01T21:46:33.783Z,16.70
2023-01-01T21:49:33.656Z,16.66
2023-01-01T21:52:02.982Z,16.62
2023-01-01T21:54:37.905Z,16.62
2023-01-01T21:57:25.152Z,16.63
2023-01-01T21:59:54.276Z,16.59
2023-01-01T22:02:35.373Z,16.58
2023-01-01T22:05:31.470Z,16.58
2023-01-01T22:08:17.733Z,16.61
2023-01-01T22:10:45.463Z,16.59
2023-01-01T22:13:17.455Z,16.60
2023-01-01T22:15:46.528Z,16.58
2023-01-01T22:18:27.214Z,16.57
2023-01-01T22:20:56.528Z,16.54
2023-01-01T22:23:43.334Z,16.57
2023-01-01T22:26:27.886Z,16.57
2023-01-01T22:29:04.086Z,16.59
2023-01-01T22:31:36.290Z,16.58
2023-01-01T22:34:06.607Z,16.58
2023-01-01T22:36:36.784Z,16.58
2023-01-01T22:39:29.130Z,16.59
2023-01-01T22:41:57.340Z,16.63
2023-01-01T22:44:27.253Z,16.62
2023-01-01T22:46:58.924Z,16.65
2023-01-01T22:49:39.246Z,16.68
2023-01-01T22:52:08.299Z,16.67
2023-01-01T22:54:36.101Z,16.68
2023-01-01T22:57:04.030Z,16.66
2023-01-01T22:59:31.782Z,16.65
2023-01-01T23:02:00.481Z,16.65
2023-01-01T23:04:28.215Z,16.65
2023-01-01T23:06:56.142Z,16.65
2023-01-01T23:09:24.964Z,16.64
2023-01-01T23:11:56.027Z,16.66
2023-01-01T23:14:43.141Z,16.64
2023-01-01T23:17:10.991Z,16.63
2023-01-01T23:19:38.756Z,16.63
2023-01-01T23:22:07.061Z,16.62
2023-01-01T23:24:35.573Z,16.61
2023-01-01T23:27:04.606Z,16.61
2023-01-01T23:29:34.167Z,16.63
2023-01-01T23:32:03.315Z,16.64
2023-01-01T23:34:31.315Z,16.64
2023-01-01T23:36:59.217Z,16.66
2023-01-01T23:39:26.943Z,16.69
2023-01-01T23:41:54.760Z,16.71
2023-01-01T23:44:22.481Z,16.71
2023-01-01T23:46:52.437Z,16.72
2023-01-01T23:49:21.829Z,16.76
2023-01-01T23:51:50.042Z,16.82
2023-01-01T23:54:17.813Z,16.84
2023-01-01T23:56:45.596Z,16.84
2023-01-01T23:59:13.494Z,16.85
